sensor_id;sensor_type;location;lat;lon;timestamp;P1;durP1;ratioP1;P2;durP2;ratioP2
81685;SDS011;71102;50.960;6.888;2023-10-09T00:00:49;19.00;;;8.30;;
81685;SDS011;71102;50.960;6.888;2023-10-09T00:03:14;16.67;;;7.20;;
81685;SDS011;71102;50.960;6.888;2023-10-09T00:05:39;18.65;;;8.40;;
81685;SDS011;71102;50.960;6.888;2023-10-09T00:08:05;18.47;;;7.80;;
81685;SDS011;71102;50.960;6.888;2023-10-09T00:10:30;19.65;;;8.52;;
81685;SDS011;71102;50.960;6.888;2023-10-09T00:12:55;17.95;;;7.80;;
81685;SDS011;71102;50.960;6.888;2023-10-09T00:15:21;16.98;;;8.40;;
81685;SDS011;71102;50.960;6.888;2023-10-09T00:17:46;19.03;;;7.60;;
81685;SDS011;71102;50.960;6.888;2023-10-09T00:20:11;17.87;;;8.43;;
81685;SDS011;71102;50.960;6.888;2023-10-09T00:22:37;19.52;;;8.00;;
81685;SDS011;71102;50.960;6.888;2023-10-09T00:25:02;19.60;;;8.10;;
81685;SDS011;71102;50.960;6.888;2023-10-09T00:27:27;17.88;;;8.40;;
81685;SDS011;71102;50.960;6.888;2023-10-09T00:29:53;17.25;;;7.90;;
81685;SDS011;71102;50.960;6.888;2023-10-09T00:32:18;18.47;;;7.80;;
81685;SDS011;71102;50.960;6.888;2023-10-09T00:34:43;14.85;;;7.93;;
81685;SDS011;71102;50.960;6.888;2023-10-09T00:37:09;18.10;;;7.57;;
81685;SDS011;71102;50.960;6.888;2023-10-09T00:39:34;16.88;;;7.85;;
81685;SDS011;71102;50.960;6.888;2023-10-09T00:42:00;15.13;;;7.20;;
81685;SDS011;71102;50.960;6.888;2023-10-09T00:44:25;18.10;;;7.30;;
81685;SDS011;71102;50.960;6.888;2023-10-09T00:46:50;18.63;;;7.73;;
81685;SDS011;71102;50.960;6.888;2023-10-09T00:49:15;20.38;;;8.20;;
81685;SDS011;71102;50.960;6.888;2023-10-09T00:51:42;17.50;;;8.55;;
81685;SDS011;71102;50.960;6.888;2023-10-09T00:54:12;17.70;;;7.60;;
81685;SDS011;71102;50.960;6.888;2023-10-09T00:56:37;18.88;;;7.57;;
81685;SDS011;71102;50.960;6.888;2023-10-09T00:59:03;16.95;;;7.15;;
81685;SDS011;71102;50.960;6.888;2023-10-09T01:01:28;15.85;;;6.85;;
81685;SDS011;71102;50.960;6.888;2023-10-09T01:03:53;19.38;;;7.55;;
81685;SDS011;71102;50.960;6.888;2023-10-09T01:06:19;20.00;;;8.00;;
81685;SDS011;71102;50.960;6.888;2023-10-09T01:08:44;16.88;;;7.22;;
81685;SDS011;71102;50.960;6.888;2023-10-09T01:11:10;16.43;;;6.80;;
81685;SDS011;71102;50.960;6.888;2023-10-09T01:13:37;17.58;;;7.88;;
81685;SDS011;71102;50.960;6.888;2023-10-09T01:16:04;18.80;;;7.93;;
81685;SDS011;71102;50.960;6.888;2023-10-09T01:18:32;17.05;;;7.63;;
81685;SDS011;71102;50.960;6.888;2023-10-09T01:20:58;18.73;;;7.75;;
81685;SDS011;71102;50.960;6.888;2023-10-09T01:23:23;16.20;;;7.10;;
81685;SDS011;71102;50.960;6.888;2023-10-09T01:25:48;15.27;;;6.50;;
81685;SDS011;71102;50.960;6.888;2023-10-09T01:28:14;14.75;;;7.47;;
81685;SDS011;71102;50.960;6.888;2023-10-09T01:30:39;18.33;;;7.67;;
81685;SDS011;71102;50.960;6.888;2023-10-09T01:33:04;16.90;;;7.68;;
81685;SDS011;71102;50.960;6.888;2023-10-09T01:35:29;14.83;;;6.97;;
81685;SDS011;71102;50.960;6.888;2023-10-09T01:37:55;17.92;;;6.95;;
81685;SDS011;71102;50.960;6.888;2023-10-09T01:40:20;15.83;;;6.87;;
81685;SDS011;71102;50.960;6.888;2023-10-09T01:42:45;16.53;;;7.57;;
81685;SDS011;71102;50.960;6.888;2023-10-09T01:45:11;17.77;;;7.20;;
81685;SDS011;71102;50.960;6.888;2023-10-09T01:47:37;15.55;;;6.50;;
81685;SDS011;71102;50.960;6.888;2023-10-09T01:50:06;17.73;;;6.63;;
81685;SDS011;71102;50.960;6.888;2023-10-09T01:52:32;13.30;;;6.80;;
81685;SDS011;71102;50.960;6.888;2023-10-09T01:54:57;16.15;;;7.22;;
81685;SDS011;71102;50.960;6.888;2023-10-09T01:57:23;15.43;;;7.10;;
81685;SDS011;71102;50.960;6.888;2023-10-09T01:59:48;17.98;;;7.35;;
81685;SDS011;71102;50.960;6.888;2023-10-09T02:02:14;16.60;;;7.50;;
81685;SDS011;71102;50.960;6.888;2023-10-09T02:04:43;16.55;;;7.60;;
81685;SDS011;71102;50.960;6.888;2023-10-09T02:07:08;16.27;;;7.38;;
81685;SDS011;71102;50.960;6.888;2023-10-09T02:09:35;15.70;;;7.38;;
81685;SDS011;71102;50.960;6.888;2023-10-09T02:12:00;14.10;;;7.60;;
81685;SDS011;71102;50.960;6.888;2023-10-09T02:14:26;16.52;;;7.15;;
81685;SDS011;71102;50.960;6.888;2023-10-09T02:16:52;14.70;;;6.15;;
81685;SDS011;71102;50.960;6.888;2023-10-09T02:19:17;12.15;;;5.95;;
81685;SDS011;71102;50.960;6.888;2023-10-09T02:21:42;13.90;;;6.32;;
81685;SDS011;71102;50.960;6.888;2023-10-09T02:24:08;15.55;;;7.25;;
81685;SDS011;71102;50.960;6.888;2023-10-09T02:26:33;16.00;;;6.77;;
81685;SDS011;71102;50.960;6.888;2023-10-09T02:28:58;16.92;;;6.38;;
81685;SDS011;71102;50.960;6.888;2023-10-09T02:31:25;15.48;;;7.47;;
81685;SDS011;71102;50.960;6.888;2023-10-09T02:33:51;14.85;;;6.95;;
81685;SDS011;71102;50.960;6.888;2023-10-09T02:36:17;15.00;;;6.68;;
81685;SDS011;71102;50.960;6.888;2023-10-09T02:38:42;12.80;;;6.03;;
81685;SDS011;71102;50.960;6.888;2023-10-09T02:41:08;14.60;;;5.60;;
81685;SDS011;71102;50.960;6.888;2023-10-09T02:43:34;15.43;;;6.38;;
81685;SDS011;71102;50.960;6.888;2023-10-09T02:46:01;13.52;;;6.13;;
81685;SDS011;71102;50.960;6.888;2023-10-09T02:48:26;13.77;;;6.88;;
81685;SDS011;71102;50.960;6.888;2023-10-09T02:50:51;17.37;;;6.47;;
81685;SDS011;71102;50.960;6.888;2023-10-09T02:53:17;15.87;;;6.27;;
81685;SDS011;71102;50.960;6.888;2023-10-09T02:55:42;11.50;;;5.55;;
81685;SDS011;71102;50.960;6.888;2023-10-09T02:58:07;13.95;;;6.53;;
81685;SDS011;71102;50.960;6.888;2023-10-09T03:00:33;15.13;;;6.57;;
81685;SDS011;71102;50.960;6.888;2023-10-09T03:02:59;16.08;;;6.28;;
81685;SDS011;71102;50.960;6.888;2023-10-09T03:05:24;15.60;;;6.43;;
81685;SDS011;71102;50.960;6.888;2023-10-09T03:07:50;14.45;;;6.78;;
81685;SDS011;71102;50.960;6.888;2023-10-09T03:10:15;17.90;;;7.10;;
81685;SDS011;71102;50.960;6.888;2023-10-09T03:12:41;14.68;;;6.63;;
81685;SDS011;71102;50.960;6.888;2023-10-09T03:15:06;11.73;;;6.10;;
81685;SDS011;71102;50.960;6.888;2023-10-09T03:17:32;15.70;;;6.10;;
81685;SDS011;71102;50.960;6.888;2023-10-09T03:19:57;12.50;;;5.35;;
81685;SDS011;71102;50.960;6.888;2023-10-09T03:22:22;16.20;;;6.32;;
81685;SDS011;71102;50.960;6.888;2023-10-09T03:24:48;12.33;;;6.23;;
81685;SDS011;71102;50.960;6.888;2023-10-09T03:27:13;14.03;;;5.60;;
81685;SDS011;71102;50.960;6.888;2023-10-09T03:29:38;15.65;;;6.00;;
81685;SDS011;71102;50.960;6.888;2023-10-09T03:32:04;13.00;;;5.47;;
81685;SDS011;71102;50.960;6.888;2023-10-09T03:34:29;14.23;;;6.03;;
81685;SDS011;71102;50.960;6.888;2023-10-09T03:36:54;14.07;;;6.43;;
81685;SDS011;71102;50.960;6.888;2023-10-09T03:39:20;12.20;;;5.40;;
81685;SDS011;71102;50.960;6.888;2023-10-09T03:41:45;13.30;;;6.17;;
81685;SDS011;71102;50.960;6.888;2023-10-09T03:44:10;14.43;;;5.67;;
81685;SDS011;71102;50.960;6.888;2023-10-09T03:46:35;11.13;;;5.33;;
81685;SDS011;71102;50.960;6.888;2023-10-09T03:49:01;13.93;;;5.50;;
81685;SDS011;71102;50.960;6.888;2023-10-09T03:51:29;12.55;;;5.93;;
81685;SDS011;71102;50.960;6.888;2023-10-09T03:53:54;13.05;;;6.03;;
81685;SDS011;71102;50.960;6.888;2023-10-09T03:56:20;12.30;;;5.55;;
81685;SDS011;71102;50.960;6.888;2023-10-09T03:58:47;11.77;;;5.20;;
81685;SDS011;71102;50.960;6.888;2023-10-09T04:01:14;12.43;;;6.10;;
81685;SDS011;71102;50.960;6.888;2023-10-09T04:03:41;15.07;;;6.13;;
81685;SDS011;71102;50.960;6.888;2023-10-09T04:06:06;16.65;;;5.93;;
81685;SDS011;71102;50.960;6.888;2023-10-09T04:08:32;13.10;;;5.77;;
81685;SDS011;71102;50.960;6.888;2023-10-09T04:10:57;15.83;;;6.10;;
81685;SDS011;71102;50.960;6.888;2023-10-09T04:13:22;12.07;;;5.47;;
81685;SDS011;71102;50.960;6.888;2023-10-09T04:15:49;12.75;;;6.13;;
81685;SDS011;71102;50.960;6.888;2023-10-09T04:18:15;12.23;;;6.28;;
81685;SDS011;71102;50.960;6.888;2023-10-09T04:20:41;15.13;;;6.22;;
81685;SDS011;71102;50.960;6.888;2023-10-09T04:23:07;15.55;;;6.70;;
81685;SDS011;71102;50.960;6.888;2023-10-09T04:25:32;13.82;;;5.45;;
81685;SDS011;71102;50.960;6.888;2023-10-09T04:27:59;13.25;;;6.25;;
81685;SDS011;71102;50.960;6.888;2023-10-09T04:30:25;14.10;;;6.57;;
81685;SDS011;71102;50.960;6.888;2023-10-09T04:32:51;15.73;;;6.43;;
81685;SDS011;71102;50.960;6.888;2023-10-09T04:35:16;13.23;;;5.67;;
81685;SDS011;71102;50.960;6.888;2023-10-09T04:37:42;14.17;;;7.00;;
81685;SDS011;71102;50.960;6.888;2023-10-09T04:40:08;15.27;;;6.90;;
81685;SDS011;71102;50.960;6.888;2023-10-09T04:42:34;13.77;;;6.57;;
81685;SDS011;71102;50.960;6.888;2023-10-09T04:44:59;13.07;;;6.10;;
81685;SDS011;71102;50.960;6.888;2023-10-09T04:47:25;14.95;;;6.25;;
81685;SDS011;71102;50.960;6.888;2023-10-09T04:49:52;12.38;;;6.88;;
81685;SDS011;71102;50.960;6.888;2023-10-09T04:52:17;13.98;;;5.93;;
81685;SDS011;71102;50.960;6.888;2023-10-09T04:54:44;14.07;;;6.57;;
81685;SDS011;71102;50.960;6.888;2023-10-09T04:57:09;14.67;;;5.23;;
81685;SDS011;71102;50.960;6.888;2023-10-09T04:59:34;13.35;;;6.47;;
81685;SDS011;71102;50.960;6.888;2023-10-09T05:02:00;13.37;;;6.57;;
81685;SDS011;71102;50.960;6.888;2023-10-09T05:04:25;14.03;;;5.80;;
81685;SDS011;71102;50.960;6.888;2023-10-09T05:06:51;11.48;;;6.32;;
81685;SDS011;71102;50.960;6.888;2023-10-09T05:09:16;13.20;;;5.53;;
81685;SDS011;71102;50.960;6.888;2023-10-09T05:11:41;12.23;;;6.37;;
81685;SDS011;71102;50.960;6.888;2023-10-09T05:14:06;11.50;;;6.13;;
81685;SDS011;71102;50.960;6.888;2023-10-09T05:16:32;13.63;;;5.80;;
81685;SDS011;71102;50.960;6.888;2023-10-09T05:18:57;13.53;;;5.83;;
81685;SDS011;71102;50.960;6.888;2023-10-09T05:23:55;14.70;;;6.97;;
81685;SDS011;71102;50.960;6.888;2023-10-09T05:26:21;14.15;;;5.97;;
81685;SDS011;71102;50.960;6.888;2023-10-09T05:28:46;12.77;;;5.93;;
81685;SDS011;71102;50.960;6.888;2023-10-09T05:31:11;13.97;;;5.77;;
81685;SDS011;71102;50.960;6.888;2023-10-09T05:33:37;14.23;;;5.63;;
81685;SDS011;71102;50.960;6.888;2023-10-09T05:36:03;12.52;;;5.13;;
81685;SDS011;71102;50.960;6.888;2023-10-09T05:38:31;10.95;;;5.07;;
81685;SDS011;71102;50.960;6.888;2023-10-09T05:40:57;14.77;;;4.53;;
81685;SDS011;71102;50.960;6.888;2023-10-09T05:43:22;13.00;;;5.13;;
81685;SDS011;71102;50.960;6.888;2023-10-09T05:45:48;13.03;;;5.40;;
81685;SDS011;71102;50.960;6.888;2023-10-09T05:48:13;12.18;;;5.85;;
81685;SDS011;71102;50.960;6.888;2023-10-09T05:50:39;11.60;;;5.20;;
81685;SDS011;71102;50.960;6.888;2023-10-09T05:53:04;9.70;;;4.95;;
81685;SDS011;71102;50.960;6.888;2023-10-09T05:55:30;16.33;;;5.00;;
81685;SDS011;71102;50.960;6.888;2023-10-09T05:57:56;11.20;;;5.25;;
81685;SDS011;71102;50.960;6.888;2023-10-09T06:00:22;11.63;;;5.40;;
81685;SDS011;71102;50.960;6.888;2023-10-09T06:02:48;13.50;;;5.18;;
81685;SDS011;71102;50.960;6.888;2023-10-09T06:05:13;11.43;;;5.20;;
81685;SDS011;71102;50.960;6.888;2023-10-09T06:07:38;13.20;;;6.88;;
81685;SDS011;71102;50.960;6.888;2023-10-09T06:10:04;11.07;;;5.93;;
81685;SDS011;71102;50.960;6.888;2023-10-09T06:12:29;10.77;;;5.22;;
81685;SDS011;71102;50.960;6.888;2023-10-09T06:14:55;12.70;;;4.97;;
81685;SDS011;71102;50.960;6.888;2023-10-09T06:17:20;10.88;;;4.63;;
81685;SDS011;71102;50.960;6.888;2023-10-09T06:19:45;10.37;;;4.50;;
81685;SDS011;71102;50.960;6.888;2023-10-09T06:22:11;12.82;;;4.63;;
81685;SDS011;71102;50.960;6.888;2023-10-09T06:24:36;10.23;;;4.72;;
81685;SDS011;71102;50.960;6.888;2023-10-09T06:27:02;12.50;;;4.95;;
81685;SDS011;71102;50.960;6.888;2023-10-09T06:29:28;9.00;;;3.95;;
81685;SDS011;71102;50.960;6.888;2023-10-09T06:31:54;11.57;;;4.80;;
81685;SDS011;71102;50.960;6.888;2023-10-09T06:34:19;9.00;;;4.07;;
81685;SDS011;71102;50.960;6.888;2023-10-09T06:36:44;11.05;;;5.00;;
81685;SDS011;71102;50.960;6.888;2023-10-09T06:39:10;10.87;;;4.73;;
81685;SDS011;71102;50.960;6.888;2023-10-09T06:41:35;10.85;;;4.47;;
81685;SDS011;71102;50.960;6.888;2023-10-09T06:44:00;10.23;;;4.03;;
81685;SDS011;71102;50.960;6.888;2023-10-09T06:46:26;14.20;;;5.05;;
81685;SDS011;71102;50.960;6.888;2023-10-09T06:48:51;12.77;;;4.77;;
81685;SDS011;71102;50.960;6.888;2023-10-09T06:51:16;9.40;;;4.87;;
81685;SDS011;71102;50.960;6.888;2023-10-09T06:53:42;11.20;;;4.63;;
81685;SDS011;71102;50.960;6.888;2023-10-09T06:56:07;11.50;;;5.65;;
81685;SDS011;71102;50.960;6.888;2023-10-09T06:58:32;13.70;;;4.63;;
81685;SDS011;71102;50.960;6.888;2023-10-09T07:00:58;12.13;;;4.85;;
81685;SDS011;71102;50.960;6.888;2023-10-09T07:03:32;11.87;;;4.20;;
81685;SDS011;71102;50.960;6.888;2023-10-09T07:11:00;10.73;;;4.33;;
81685;SDS011;71102;50.960;6.888;2023-10-09T07:13:26;10.55;;;5.20;;
81685;SDS011;71102;50.960;6.888;2023-10-09T07:15:51;11.35;;;5.63;;
81685;SDS011;71102;50.960;6.888;2023-10-09T07:18:16;11.63;;;4.97;;
81685;SDS011;71102;50.960;6.888;2023-10-09T07:20:42;9.88;;;4.45;;
81685;SDS011;71102;50.960;6.888;2023-10-09T07:23:07;12.23;;;4.43;;
81685;SDS011;71102;50.960;6.888;2023-10-09T07:25:32;11.87;;;4.97;;
81685;SDS011;71102;50.960;6.888;2023-10-09T07:27:58;10.00;;;4.07;;
81685;SDS011;71102;50.960;6.888;2023-10-09T07:30:23;9.85;;;4.50;;
81685;SDS011;71102;50.960;6.888;2023-10-09T07:32:48;9.73;;;4.93;;
81685;SDS011;71102;50.960;6.888;2023-10-09T07:35:14;11.80;;;4.97;;
81685;SDS011;71102;50.960;6.888;2023-10-09T07:37:39;9.77;;;4.73;;
81685;SDS011;71102;50.960;6.888;2023-10-09T07:40:04;12.37;;;5.07;;
81685;SDS011;71102;50.960;6.888;2023-10-09T07:42:30;11.93;;;5.28;;
81685;SDS011;71102;50.960;6.888;2023-10-09T07:44:56;12.00;;;5.07;;
81685;SDS011;71102;50.960;6.888;2023-10-09T07:47:21;10.60;;;5.13;;
81685;SDS011;71102;50.960;6.888;2023-10-09T07:49:47;10.85;;;4.65;;
81685;SDS011;71102;50.960;6.888;2023-10-09T07:52:12;10.30;;;4.67;;
81685;SDS011;71102;50.960;6.888;2023-10-09T07:54:37;10.55;;;4.47;;
81685;SDS011;71102;50.960;6.888;2023-10-09T07:57:02;11.97;;;4.60;;
81685;SDS011;71102;50.960;6.888;2023-10-09T07:59:28;11.02;;;4.75;;
81685;SDS011;71102;50.960;6.888;2023-10-09T08:01:53;11.03;;;4.63;;
81685;SDS011;71102;50.960;6.888;2023-10-09T08:04:19;11.70;;;5.37;;
81685;SDS011;71102;50.960;6.888;2023-10-09T08:06:45;9.05;;;4.10;;
81685;SDS011;71102;50.960;6.888;2023-10-09T08:09:11;11.88;;;5.05;;
81685;SDS011;71102;50.960;6.888;2023-10-09T08:11:36;9.95;;;3.92;;
81685;SDS011;71102;50.960;6.888;2023-10-09T08:14:02;10.40;;;4.55;;
81685;SDS011;71102;50.960;6.888;2023-10-09T08:16:27;10.37;;;4.73;;
81685;SDS011;71102;50.960;6.888;2023-10-09T08:18:52;14.15;;;5.18;;
81685;SDS011;71102;50.960;6.888;2023-10-09T08:21:18;11.07;;;5.03;;
81685;SDS011;71102;50.960;6.888;2023-10-09T08:23:44;12.93;;;4.72;;
81685;SDS011;71102;50.960;6.888;2023-10-09T08:26:09;12.45;;;4.43;;
81685;SDS011;71102;50.960;6.888;2023-10-09T08:28:34;12.03;;;4.43;;
81685;SDS011;71102;50.960;6.888;2023-10-09T08:30:59;14.17;;;5.00;;
81685;SDS011;71102;50.960;6.888;2023-10-09T08:33:25;12.40;;;4.97;;
81685;SDS011;71102;50.960;6.888;2023-10-09T08:35:50;10.38;;;4.88;;
81685;SDS011;71102;50.960;6.888;2023-10-09T08:38:16;12.10;;;4.82;;
81685;SDS011;71102;50.960;6.888;2023-10-09T08:40:42;11.05;;;4.80;;
81685;SDS011;71102;50.960;6.888;2023-10-09T08:43:09;12.95;;;4.45;;
81685;SDS011;71102;50.960;6.888;2023-10-09T08:45:39;15.85;;;4.20;;
81685;SDS011;71102;50.960;6.888;2023-10-09T08:48:08;14.18;;;4.82;;
81685;SDS011;71102;50.960;6.888;2023-10-09T08:53:01;13.00;;;5.05;;
81685;SDS011;71102;50.960;6.888;2023-10-09T08:55:26;10.32;;;4.15;;
81685;SDS011;71102;50.960;6.888;2023-10-09T08:57:51;9.93;;;4.30;;
81685;SDS011;71102;50.960;6.888;2023-10-09T09:00:17;10.80;;;3.95;;
81685;SDS011;71102;50.960;6.888;2023-10-09T09:02:43;10.85;;;4.07;;
81685;SDS011;71102;50.960;6.888;2023-10-09T09:05:16;13.10;;;5.37;;
81685;SDS011;71102;50.960;6.888;2023-10-09T09:07:42;11.10;;;4.78;;
81685;SDS011;71102;50.960;6.888;2023-10-09T09:10:07;11.67;;;4.53;;
81685;SDS011;71102;50.960;6.888;2023-10-09T09:12:33;12.85;;;4.53;;
81685;SDS011;71102;50.960;6.888;2023-10-09T09:14:58;9.37;;;4.63;;
81685;SDS011;71102;50.960;6.888;2023-10-09T09:17:29;10.30;;;4.45;;
81685;SDS011;71102;50.960;6.888;2023-10-09T09:19:57;13.40;;;4.85;;
81685;SDS011;71102;50.960;6.888;2023-10-09T09:22:23;9.75;;;4.72;;
81685;SDS011;71102;50.960;6.888;2023-10-09T09:24:58;12.38;;;4.30;;
81685;SDS011;71102;50.960;6.888;2023-10-09T09:27:23;12.77;;;5.50;;
81685;SDS011;71102;50.960;6.888;2023-10-09T09:30:12;9.50;;;5.15;;
81685;SDS011;71102;50.960;6.888;2023-10-09T09:32:47;9.82;;;4.28;;
81685;SDS011;71102;50.960;6.888;2023-10-09T09:35:12;10.30;;;4.60;;
81685;SDS011;71102;50.960;6.888;2023-10-09T09:37:38;9.67;;;4.40;;
81685;SDS011;71102;50.960;6.888;2023-10-09T09:40:03;9.87;;;4.77;;
81685;SDS011;71102;50.960;6.888;2023-10-09T09:42:29;10.77;;;4.22;;
81685;SDS011;71102;50.960;6.888;2023-10-09T09:44:56;13.20;;;4.50;;
81685;SDS011;71102;50.960;6.888;2023-10-09T09:47:25;9.88;;;4.32;;
81685;SDS011;71102;50.960;6.888;2023-10-09T09:49:51;12.57;;;4.95;;
81685;SDS011;71102;50.960;6.888;2023-10-09T09:52:17;9.57;;;4.43;;
81685;SDS011;71102;50.960;6.888;2023-10-09T09:54:43;13.70;;;4.45;;
81685;SDS011;71102;50.960;6.888;2023-10-09T09:57:09;10.38;;;4.65;;
81685;SDS011;71102;50.960;6.888;2023-10-09T09:59:40;9.98;;;3.72;;
81685;SDS011;71102;50.960;6.888;2023-10-09T10:02:07;9.82;;;3.80;;
81685;SDS011;71102;50.960;6.888;2023-10-09T10:04:38;12.43;;;4.25;;
81685;SDS011;71102;50.960;6.888;2023-10-09T10:07:08;11.10;;;4.20;;
81685;SDS011;71102;50.960;6.888;2023-10-09T10:09:35;8.68;;;4.03;;
81685;SDS011;71102;50.960;6.888;2023-10-09T10:12:00;11.52;;;3.90;;
81685;SDS011;71102;50.960;6.888;2023-10-09T10:14:26;10.00;;;3.60;;
81685;SDS011;71102;50.960;6.888;2023-10-09T10:17:16;9.40;;;3.65;;
81685;SDS011;71102;50.960;6.888;2023-10-09T10:24:48;9.10;;;3.58;;
81685;SDS011;71102;50.960;6.888;2023-10-09T10:29:39;9.60;;;3.87;;
81685;SDS011;71102;50.960;6.888;2023-10-09T10:32:04;8.97;;;3.67;;
81685;SDS011;71102;50.960;6.888;2023-10-09T10:37:13;11.48;;;3.55;;
81685;SDS011;71102;50.960;6.888;2023-10-09T10:40:00;8.98;;;3.35;;
81685;SDS011;71102;50.960;6.888;2023-10-09T10:42:24;14.52;;;3.45;;
81685;SDS011;71102;50.960;6.888;2023-10-09T10:44:50;9.38;;;3.83;;
81685;SDS011;71102;50.960;6.888;2023-10-09T10:47:15;10.50;;;3.67;;
81685;SDS011;71102;50.960;6.888;2023-10-09T10:49:52;9.60;;;3.60;;
81685;SDS011;71102;50.960;6.888;2023-10-09T10:52:21;9.23;;;3.22;;
81685;SDS011;71102;50.960;6.888;2023-10-09T10:54:47;13.60;;;3.25;;
81685;SDS011;71102;50.960;6.888;2023-10-09T10:57:14;11.35;;;2.88;;
81685;SDS011;71102;50.960;6.888;2023-10-09T10:59:46;9.13;;;3.45;;
81685;SDS011;71102;50.960;6.888;2023-10-09T11:02:12;8.40;;;3.10;;
81685;SDS011;71102;50.960;6.888;2023-10-09T11:04:37;9.82;;;2.80;;
81685;SDS011;71102;50.960;6.888;2023-10-09T11:07:03;14.13;;;3.70;;
81685;SDS011;71102;50.960;6.888;2023-10-09T11:09:29;10.63;;;3.40;;
81685;SDS011;71102;50.960;6.888;2023-10-09T11:12:08;8.52;;;2.95;;
81685;SDS011;71102;50.960;6.888;2023-10-09T11:14:33;11.02;;;3.60;;
81685;SDS011;71102;50.960;6.888;2023-10-09T11:16:58;11.40;;;3.00;;
81685;SDS011;71102;50.960;6.888;2023-10-09T11:19:24;7.65;;;2.92;;
81685;SDS011;71102;50.960;6.888;2023-10-09T11:21:51;9.70;;;4.00;;
81685;SDS011;71102;50.960;6.888;2023-10-09T11:24:16;8.43;;;3.00;;
81685;SDS011;71102;50.960;6.888;2023-10-09T11:26:42;9.38;;;3.10;;
81685;SDS011;71102;50.960;6.888;2023-10-09T11:29:17;9.55;;;2.85;;
81685;SDS011;71102;50.960;6.888;2023-10-09T11:34:29;8.90;;;2.88;;
81685;SDS011;71102;50.960;6.888;2023-10-09T11:37:01;8.73;;;3.35;;
81685;SDS011;71102;50.960;6.888;2023-10-09T11:39:29;7.88;;;3.58;;
81685;SDS011;71102;50.960;6.888;2023-10-09T11:42:03;9.90;;;3.30;;
81685;SDS011;71102;50.960;6.888;2023-10-09T11:44:39;9.32;;;3.10;;
81685;SDS011;71102;50.960;6.888;2023-10-09T11:47:06;9.60;;;3.63;;
81685;SDS011;71102;50.960;6.888;2023-10-09T11:49:32;9.32;;;2.83;;
81685;SDS011;71102;50.960;6.888;2023-10-09T11:52:07;10.33;;;2.93;;
81685;SDS011;71102;50.960;6.888;2023-10-09T11:54:35;9.38;;;3.10;;
81685;SDS011;71102;50.960;6.888;2023-10-09T11:57:00;8.57;;;3.10;;
81685;SDS011;71102;50.960;6.888;2023-10-09T11:59:26;10.60;;;2.78;;
81685;SDS011;71102;50.960;6.888;2023-10-09T12:01:55;9.82;;;3.38;;
81685;SDS011;71102;50.960;6.888;2023-10-09T12:04:21;10.80;;;3.47;;
81685;SDS011;71102;50.960;6.888;2023-10-09T12:06:46;12.07;;;3.30;;
81685;SDS011;71102;50.960;6.888;2023-10-09T12:09:11;12.07;;;3.30;;
81685;SDS011;71102;50.960;6.888;2023-10-09T12:11:37;11.60;;;3.15;;
81685;SDS011;71102;50.960;6.888;2023-10-09T12:14:02;10.83;;;3.17;;
81685;SDS011;71102;50.960;6.888;2023-10-09T12:16:27;11.05;;;3.15;;
81685;SDS011;71102;50.960;6.888;2023-10-09T12:18:53;8.33;;;3.20;;
81685;SDS011;71102;50.960;6.888;2023-10-09T12:21:20;9.85;;;4.45;;
81685;SDS011;71102;50.960;6.888;2023-10-09T12:23:45;12.23;;;3.53;;
81685;SDS011;71102;50.960;6.888;2023-10-09T12:26:11;11.38;;;3.80;;
81685;SDS011;71102;50.960;6.888;2023-10-09T12:28:36;13.55;;;3.40;;
81685;SDS011;71102;50.960;6.888;2023-10-09T12:31:01;9.13;;;3.63;;
81685;SDS011;71102;50.960;6.888;2023-10-09T12:33:27;13.85;;;3.70;;
81685;SDS011;71102;50.960;6.888;2023-10-09T12:35:54;10.88;;;4.15;;
81685;SDS011;71102;50.960;6.888;2023-10-09T12:38:20;20.20;;;4.00;;
81685;SDS011;71102;50.960;6.888;2023-10-09T12:40:45;9.18;;;3.38;;
81685;SDS011;71102;50.960;6.888;2023-10-09T12:43:11;15.77;;;3.72;;
81685;SDS011;71102;50.960;6.888;2023-10-09T12:45:36;11.30;;;4.00;;
81685;SDS011;71102;50.960;6.888;2023-10-09T12:48:01;9.57;;;3.53;;
81685;SDS011;71102;50.960;6.888;2023-10-09T12:50:27;9.85;;;3.55;;
81685;SDS011;71102;50.960;6.888;2023-10-09T12:52:59;11.52;;;3.80;;
81685;SDS011;71102;50.960;6.888;2023-10-09T12:55:25;10.00;;;3.30;;
81685;SDS011;71102;50.960;6.888;2023-10-09T12:57:50;10.97;;;3.50;;
81685;SDS011;71102;50.960;6.888;2023-10-09T13:00:16;15.30;;;3.85;;
81685;SDS011;71102;50.960;6.888;2023-10-09T13:02:41;14.30;;;4.13;;
81685;SDS011;71102;50.960;6.888;2023-10-09T13:05:06;16.20;;;3.83;;
81685;SDS011;71102;50.960;6.888;2023-10-09T13:07:32;12.88;;;4.00;;
81685;SDS011;71102;50.960;6.888;2023-10-09T13:09:57;12.73;;;3.90;;
81685;SDS011;71102;50.960;6.888;2023-10-09T13:12:22;11.87;;;3.90;;
81685;SDS011;71102;50.960;6.888;2023-10-09T13:14:47;11.90;;;3.50;;
81685;SDS011;71102;50.960;6.888;2023-10-09T13:17:13;9.63;;;3.80;;
81685;SDS011;71102;50.960;6.888;2023-10-09T13:19:38;13.40;;;4.30;;
81685;SDS011;71102;50.960;6.888;2023-10-09T13:22:03;11.85;;;4.20;;
81685;SDS011;71102;50.960;6.888;2023-10-09T13:24:29;10.17;;;3.70;;
81685;SDS011;71102;50.960;6.888;2023-10-09T13:26:54;12.75;;;3.95;;
81685;SDS011;71102;50.960;6.888;2023-10-09T13:29:20;10.15;;;2.95;;
81685;SDS011;71102;50.960;6.888;2023-10-09T13:31:45;10.10;;;3.63;;
81685;SDS011;71102;50.960;6.888;2023-10-09T13:34:10;15.87;;;4.07;;
81685;SDS011;71102;50.960;6.888;2023-10-09T13:36:36;15.27;;;3.65;;
81685;SDS011;71102;50.960;6.888;2023-10-09T13:39:05;11.87;;;3.60;;
81685;SDS011;71102;50.960;6.888;2023-10-09T13:41:31;10.32;;;3.95;;
81685;SDS011;71102;50.960;6.888;2023-10-09T13:43:56;10.50;;;4.22;;
81685;SDS011;71102;50.960;6.888;2023-10-09T13:46:22;10.43;;;3.83;;
81685;SDS011;71102;50.960;6.888;2023-10-09T13:48:48;8.23;;;3.17;;
81685;SDS011;71102;50.960;6.888;2023-10-09T13:51:13;8.68;;;3.45;;
81685;SDS011;71102;50.960;6.888;2023-10-09T13:53:39;10.30;;;3.80;;
81685;SDS011;71102;50.960;6.888;2023-10-09T13:56:05;10.50;;;4.43;;
81685;SDS011;71102;50.960;6.888;2023-10-09T13:58:50;10.95;;;3.85;;
81685;SDS011;71102;50.960;6.888;2023-10-09T14:01:19;12.60;;;3.90;;
81685;SDS011;71102;50.960;6.888;2023-10-09T14:06:10;10.73;;;3.90;;
81685;SDS011;71102;50.960;6.888;2023-10-09T14:08:35;13.00;;;5.40;;
81685;SDS011;71102;50.960;6.888;2023-10-09T14:11:01;10.07;;;3.65;;
81685;SDS011;71102;50.960;6.888;2023-10-09T14:13:26;10.57;;;3.40;;
81685;SDS011;71102;50.960;6.888;2023-10-09T14:15:52;10.27;;;3.97;;
81685;SDS011;71102;50.960;6.888;2023-10-09T14:18:17;10.13;;;4.15;;
81685;SDS011;71102;50.960;6.888;2023-10-09T14:20:42;8.38;;;3.70;;
81685;SDS011;71102;50.960;6.888;2023-10-09T14:23:08;11.87;;;3.87;;
81685;SDS011;71102;50.960;6.888;2023-10-09T14:25:33;10.00;;;3.38;;
81685;SDS011;71102;50.960;6.888;2023-10-09T14:27:59;10.85;;;4.10;;
81685;SDS011;71102;50.960;6.888;2023-10-09T14:30:24;12.45;;;3.47;;
81685;SDS011;71102;50.960;6.888;2023-10-09T14:32:50;10.52;;;4.05;;
81685;SDS011;71102;50.960;6.888;2023-10-09T14:35:15;11.88;;;4.00;;
81685;SDS011;71102;50.960;6.888;2023-10-09T14:37:40;13.67;;;3.80;;
81685;SDS011;71102;50.960;6.888;2023-10-09T14:40:06;9.30;;;3.75;;
81685;SDS011;71102;50.960;6.888;2023-10-09T14:42:32;13.40;;;5.05;;
81685;SDS011;71102;50.960;6.888;2023-10-09T14:44:57;10.00;;;4.17;;
81685;SDS011;71102;50.960;6.888;2023-10-09T14:47:22;12.07;;;4.03;;
81685;SDS011;71102;50.960;6.888;2023-10-09T14:49:48;10.73;;;4.40;;
81685;SDS011;71102;50.960;6.888;2023-10-09T14:52:14;10.18;;;4.15;;
81685;SDS011;71102;50.960;6.888;2023-10-09T14:54:40;11.75;;;3.85;;